Woods Cross Roads, Virginia
Current Conditions -  °F | °C
As of 4:35 AM on Monday 24 Nov 2014 (Local Time) from KFYJ Reporting Station
Overcast Overcast  
Wind Chill: 69°   Ceiling: 1400
Heat Index: 69°   Visibility: 10mi
Dew Point: 64°   Wind: 15mph
Humidity: 84%   Direction: 170°S
Pressure: 29.74"   Gusts: 24mph
Location:  37.48°N, 76.62°W
Report Text: KFYJ 240935Z AUTO 17013G21KT 10SM BKN014 BKN023 OVC049 21/18 A2974 RMK AO2 T02060178
Loading
Personal Weather Stations






























Interactive Weather Map New forecast layout! Learn more

10-Day Weather Forecast

Advertisements
Track Severe Weather on mobile